createdAt,value
2019-06-07T00:00:33.279Z,87.57
2019-06-07T00:02:47.769Z,87.32
2019-06-07T00:05:18.646Z,87.44
2019-06-07T00:07:43.926Z,87.32
2019-06-07T00:10:14.453Z,87.25
2019-06-07T00:12:40.010Z,87.14
2019-06-07T00:15:14.309Z,86.93
2019-06-07T00:17:35.828Z,86.89
2019-06-07T00:20:03.157Z,87.01
2019-06-07T00:22:33.272Z,87.60
2019-06-07T00:24:59.304Z,87.58
2019-06-07T00:27:26.351Z,87.71
2019-06-07T00:29:53.708Z,87.77
2019-06-07T00:32:22.002Z,87.83
2019-06-07T00:34:49.490Z,87.87
2019-06-07T00:37:19.768Z,87.78
2019-06-07T00:39:45.774Z,88.02
2019-06-07T00:42:16.713Z,87.92
2019-06-07T00:44:42.802Z,88.03
2019-06-07T00:47:10.673Z,88.02
2019-06-07T00:49:41.452Z,88.10
2019-06-07T00:52:07.052Z,88.15
2019-06-07T00:54:34.131Z,88.33
2019-06-07T00:57:01.481Z,88.62
2019-06-07T00:59:29.763Z,89.10
2019-06-07T01:01:57.214Z,89.46
2019-06-07T01:04:26.683Z,90.13
2019-06-07T01:06:53.097Z,90.38
2019-06-07T01:09:22.431Z,90.74
2019-06-07T01:11:48.887Z,90.75
2019-06-07T01:14:21.454Z,91.26
2019-06-07T01:16:57.235Z,91.54
2019-06-07T01:19:14.164Z,92.00
2019-06-07T01:21:41.213Z,93.05
2019-06-07T01:24:12.331Z,93.17
2019-06-07T01:26:37.364Z,93.26
2019-06-07T01:29:04.830Z,93.04
2019-06-07T01:31:32.147Z,92.39
2019-06-07T01:33:59.452Z,92.00
2019-06-07T01:36:29.569Z,91.79
2019-06-07T01:38:55.338Z,91.36
2019-06-07T01:41:25.416Z,90.94
2019-06-07T01:43:51.141Z,90.86
2019-06-07T01:46:18.496Z,90.96
2019-06-07T01:48:49.544Z,90.70
2019-06-07T01:51:14.790Z,90.71
2019-06-07T01:53:42.090Z,90.70
2019-06-07T01:56:10.118Z,90.68
2019-06-07T01:58:37.532Z,90.54
2019-06-07T02:01:04.587Z,90.62
2019-06-07T02:03:33.099Z,90.65
2019-06-07T02:06:00.658Z,90.86
2019-06-07T02:08:34.070Z,91.08
2019-06-07T02:10:56.735Z,91.18
2019-06-07T02:13:27.405Z,91.07
2019-06-07T02:15:52.526Z,90.93
2019-06-07T02:18:21.815Z,90.88
2019-06-07T02:20:48.632Z,90.53
2019-06-07T02:23:15.676Z,90.54
2019-06-07T02:25:50.039Z,90.53
2019-06-07T02:28:27.650Z,90.52
2019-06-07T02:30:50.545Z,90.37
2019-06-07T02:33:09.345Z,90.38
2019-06-07T02:35:40.233Z,90.48
2019-06-07T02:38:05.759Z,90.51
2019-06-07T02:40:37.268Z,90.56
2019-06-07T02:43:01.561Z,90.53
2019-06-07T02:45:32.885Z,90.57
2019-06-07T02:47:57.936Z,90.52
2019-06-07T02:50:26.235Z,90.51
2019-06-07T02:52:54.052Z,90.45
2019-06-07T02:55:21.099Z,90.26
2019-06-07T02:57:48.530Z,90.22
2019-06-07T03:00:41.493Z,90.37
2019-06-07T03:02:44.752Z,90.44
2019-06-07T03:05:11.774Z,90.28
2019-06-07T03:07:44.544Z,90.06
2019-06-07T03:10:08.113Z,89.87
2019-06-07T03:12:35.615Z,89.65
2019-06-07T03:15:02.603Z,89.45
2019-06-07T03:17:34.688Z,89.29
2019-06-07T03:19:59.544Z,88.97
2019-06-07T03:22:26.785Z,88.85
2019-06-07T03:24:54.101Z,88.77
2019-06-07T03:27:48.861Z,88.34
2019-06-07T03:29:50.170Z,88.11
2019-06-07T03:32:17.312Z,87.45
2019-06-07T03:34:44.365Z,85.96
2019-06-07T03:37:11.690Z,84.53
2019-06-07T03:39:40.955Z,82.53
2019-06-07T03:42:11.748Z,81.29
2019-06-07T03:44:41.561Z,80.71
2019-06-07T03:47:08.516Z,80.62
2019-06-07T03:49:39.408Z,80.19
2019-06-07T03:52:04.320Z,80.83
2019-06-07T03:54:32.074Z,81.51
2019-06-07T03:56:59.751Z,82.31
2019-06-07T03:59:28.431Z,82.65
2019-06-07T04:01:55.790Z,83.09
2019-06-07T04:04:22.828Z,83.42
2019-06-07T04:06:49.949Z,83.65
2019-06-07T04:09:17.244Z,83.68
2019-06-07T04:11:44.598Z,83.80
2019-06-07T04:14:11.649Z,83.90
2019-06-07T04:16:44.164Z,83.83
2019-06-07T04:19:07.449Z,83.69
2019-06-07T04:21:40.360Z,83.74
2019-06-07T04:24:04.551Z,83.72
2019-06-07T04:26:34.440Z,83.63
2019-06-07T04:29:32.400Z,83.41
2019-06-07T04:31:32.168Z,83.61
2019-06-07T04:33:58.889Z,83.62
2019-06-07T04:36:41.818Z,83.56
2019-06-07T04:38:55.341Z,83.59
2019-06-07T04:41:22.388Z,81.34
2019-06-07T04:43:49.451Z,74.33
2019-06-07T04:46:16.789Z,69.41
2019-06-07T04:48:44.176Z,66.48
2019-06-07T04:51:11.505Z,63.63
2019-06-07T04:53:43.468Z,61.02
2019-06-07T04:56:10.921Z,59.67
2019-06-07T04:58:41.343Z,57.55
2019-06-07T05:01:26.350Z,57.00
2019-06-07T05:03:40.808Z,56.46
2019-06-07T05:06:05.933Z,55.77
2019-06-07T05:08:36.135Z,55.47
2019-06-07T05:11:03.089Z,55.42
2019-06-07T05:13:31.424Z,53.73
2019-06-07T05:15:58.849Z,52.33
2019-06-07T05:18:26.165Z,51.98
2019-06-07T05:20:53.460Z,51.20
2019-06-07T05:24:00.159Z,49.62
2019-06-07T05:25:49.503Z,51.22
2019-06-07T05:28:16.878Z,50.19
2019-06-07T05:31:03.714Z,50.85
2019-06-07T05:33:13.011Z,51.90
2019-06-07T05:35:42.899Z,51.82
2019-06-07T05:38:08.807Z,51.70
2019-06-07T05:40:38.729Z,52.44
2019-06-07T05:43:05.045Z,52.32
2019-06-07T05:45:32.509Z,52.53
2019-06-07T05:48:00.465Z,51.52
2019-06-07T05:50:41.501Z,51.18
2019-06-07T05:52:58.030Z,50.88
2019-06-07T05:55:25.367Z,50.41
2019-06-07T05:57:52.714Z,50.42
2019-06-07T06:00:19.780Z,51.66
2019-06-07T06:03:03.621Z,52.38
2019-06-07T06:05:32.609Z,50.31
2019-06-07T06:07:50.556Z,51.58
2019-06-07T06:10:14.411Z,49.60
2019-06-07T06:12:46.130Z,50.42
2019-06-07T06:15:10.590Z,50.66
2019-06-07T06:17:42.683Z,49.52
2019-06-07T06:20:06.657Z,50.54
2019-06-07T06:22:33.693Z,52.06
2019-06-07T06:25:30.999Z,51.55
2019-06-07T06:28:03.280Z,51.05
2019-06-07T06:29:58.532Z,52.09
2019-06-07T06:32:46.647Z,50.09
2019-06-07T06:34:55.894Z,51.44
2019-06-07T06:37:23.221Z,52.77
2019-06-07T06:39:50.374Z,52.19
2019-06-07T06:42:17.398Z,53.84
2019-06-07T06:44:47.105Z,51.56
2019-06-07T06:47:13.525Z,54.44
2019-06-07T06:49:41.721Z,53.02
2019-06-07T06:52:09.316Z,51.97
2019-06-07T06:54:43.085Z,54.70
2019-06-07T06:57:19.222Z,54.53
2019-06-07T06:59:39.285Z,53.10
2019-06-07T07:02:02.845Z,51.76
2019-06-07T07:04:30.154Z,52.71
2019-06-07T07:06:57.190Z,53.19
2019-06-07T07:09:24.243Z,51.78
2019-06-07T07:12:08.854Z,51.71
2019-06-07T07:14:20.031Z,52.99
2019-06-07T07:16:51.939Z,52.11
2019-06-07T07:19:15.845Z,54.33
2019-06-07T07:21:45.835Z,52.03
2019-06-07T07:24:21.746Z,53.29
2019-06-07T07:26:42.960Z,54.37
2019-06-07T07:29:09.465Z,53.61
2019-06-07T07:31:36.518Z,52.00
2019-06-07T07:36:39.384Z,52.44
2019-06-07T07:39:05.005Z,54.34
2019-06-07T07:41:31.122Z,55.10
2019-06-07T07:44:05.800Z,54.99
2019-06-07T07:46:29.463Z,54.46
2019-06-07T07:48:56.268Z,54.36
2019-06-07T07:51:23.379Z,53.15
2019-06-07T07:54:02.158Z,53.86
2019-06-07T07:56:20.476Z,53.94
2019-06-07T07:58:51.171Z,53.19
2019-06-07T08:01:16.262Z,53.28
2019-06-07T08:03:43.297Z,53.05
2019-06-07T08:06:10.619Z,51.79
2019-06-07T08:08:37.649Z,53.76
2019-06-07T08:11:04.706Z,52.26
2019-06-07T08:13:31.743Z,52.84
2019-06-07T08:16:06.228Z,51.83
2019-06-07T08:18:27.850Z,50.40
2019-06-07T08:21:15.380Z,51.74
2019-06-07T08:23:23.647Z,51.31
2019-06-07T08:25:52.710Z,49.92
2019-06-07T08:28:19.450Z,50.41
2019-06-07T08:30:52.207Z,49.90
2019-06-07T08:33:26.139Z,52.82
2019-06-07T08:36:06.044Z,51.88
2019-06-07T08:38:26.015Z,52.04
2019-06-07T08:40:42.332Z,52.81
2019-06-07T08:43:19.509Z,50.70
2019-06-07T08:45:38.455Z,50.74
2019-06-07T08:48:26.649Z,53.06
2019-06-07T08:50:34.795Z,53.83
2019-06-07T08:53:11.437Z,51.33
2019-06-07T08:55:30.594Z,52.31
2019-06-07T08:58:04.229Z,52.10
2019-06-07T09:00:45.143Z,53.12
2019-06-07T09:03:00.930Z,52.09
2019-06-07T09:05:24.463Z,53.51
2019-06-07T09:08:13.483Z,54.82
2019-06-07T09:10:20.899Z,53.20
2019-06-07T09:12:47.959Z,52.63
2019-06-07T09:15:23.176Z,52.96
2019-06-07T09:18:29.774Z,51.88
2019-06-07T09:20:35.261Z,51.19
2019-06-07T09:22:41.520Z,52.06
2019-06-07T09:25:20.045Z,51.17
2019-06-07T09:27:37.312Z,51.12
2019-06-07T09:30:11.746Z,52.23
2019-06-07T09:32:33.119Z,49.82
2019-06-07T09:35:07.343Z,52.31
2019-06-07T09:40:09.688Z,51.09
2019-06-07T09:42:28.263Z,50.42
2019-06-07T09:44:57.351Z,50.46
2019-06-07T09:47:32.526Z,53.02
2019-06-07T09:49:53.132Z,49.88
2019-06-07T09:52:20.492Z,50.84
2019-06-07T09:55:09.322Z,51.09
2019-06-07T09:57:17.888Z,53.43
2019-06-07T09:59:45.478Z,53.87
2019-06-07T10:02:13.983Z,49.33
2019-06-07T10:04:41.033Z,48.96
2019-06-07T10:07:28.140Z,49.21
2019-06-07T10:12:06.681Z,50.38
2019-06-07T10:14:33.726Z,49.26
2019-06-07T10:17:01.091Z,51.31
2019-06-07T10:19:28.128Z,49.14
2019-06-07T10:21:55.501Z,48.09
2019-06-07T10:24:22.542Z,49.47
2019-06-07T10:26:49.896Z,51.02
2019-06-07T10:29:16.965Z,47.45
2019-06-07T10:31:44.000Z,49.26
2019-06-07T10:34:11.050Z,48.09
2019-06-07T10:36:38.120Z,48.06
2019-06-07T10:39:06.867Z,50.97
2019-06-07T10:41:34.084Z,48.77
2019-06-07T10:44:01.481Z,48.66
2019-06-07T10:46:28.840Z,48.54
2019-06-07T10:48:56.223Z,50.19
2019-06-07T10:51:24.390Z,47.66
2019-06-07T10:53:51.723Z,49.35
2019-06-07T10:56:18.763Z,50.02
2019-06-07T10:58:46.087Z,48.30
2019-06-07T11:01:14.395Z,48.13
2019-06-07T11:03:41.915Z,48.06
2019-06-07T11:06:10.119Z,46.25
2019-06-07T11:08:38.255Z,45.26
2019-06-07T11:11:05.983Z,46.01
2019-06-07T11:13:33.063Z,46.34
2019-06-07T11:16:00.124Z,46.35
2019-06-07T11:18:27.406Z,45.50
2019-06-07T11:20:54.688Z,43.98
2019-06-07T11:23:21.982Z,43.48
2019-06-07T11:25:49.261Z,44.10
2019-06-07T11:28:16.319Z,42.88
2019-06-07T11:30:44.594Z,43.16
2019-06-07T11:33:13.301Z,42.21
2019-06-07T11:35:40.771Z,40.34
2019-06-07T11:38:08.316Z,39.32
2019-06-07T11:40:36.141Z,39.57
2019-06-07T11:43:03.316Z,39.09
2019-06-07T11:45:30.345Z,38.73
2019-06-07T11:47:59.851Z,39.43
2019-06-07T11:50:26.496Z,40.60
2019-06-07T11:52:53.550Z,39.94
2019-06-07T11:55:20.982Z,39.92
2019-06-07T11:57:48.007Z,38.65
2019-06-07T12:00:16.449Z,38.59
2019-06-07T12:02:44.351Z,37.30
2019-06-07T12:05:15.334Z,38.01
2019-06-07T12:07:40.138Z,37.84
2019-06-07T12:10:08.443Z,36.30
2019-06-07T12:12:37.121Z,36.14
2019-06-07T12:15:04.509Z,34.23
2019-06-07T12:17:31.833Z,34.93
2019-06-07T12:22:31.995Z,34.97
2019-06-07T12:24:59.322Z,33.52
2019-06-07T12:27:26.368Z,34.33
2019-06-07T12:29:53.424Z,33.20
2019-06-07T12:32:21.575Z,32.88
2019-06-07T12:34:49.084Z,33.07
2019-06-07T12:37:19.324Z,32.77
2019-06-07T12:39:45.505Z,32.41
2019-06-07T12:42:12.860Z,32.96
2019-06-07T12:44:40.214Z,35.29
2019-06-07T12:47:07.570Z,34.84
2019-06-07T12:49:34.928Z,37.98
2019-06-07T12:52:01.980Z,36.41
2019-06-07T12:54:29.029Z,38.93
2019-06-07T12:56:56.097Z,39.63
2019-06-07T12:59:24.290Z,40.34
2019-06-07T13:01:51.801Z,38.85
2019-06-07T13:04:18.854Z,38.88
2019-06-07T13:06:46.226Z,39.27
2019-06-07T13:09:13.285Z,41.60
2019-06-07T13:11:40.606Z,40.44
2019-06-07T13:14:07.658Z,38.65
2019-06-07T13:16:35.010Z,39.57
2019-06-07T13:19:02.391Z,37.55
2019-06-07T13:21:29.435Z,38.02
2019-06-07T13:23:56.760Z,38.84
2019-06-07T13:26:25.050Z,39.20
2019-06-07T13:28:52.185Z,39.82
2019-06-07T13:31:20.952Z,37.28
2019-06-07T13:33:48.568Z,37.07
2019-06-07T13:36:16.040Z,37.97
2019-06-07T13:38:43.431Z,39.40
2019-06-07T13:41:10.543Z,41.92
2019-06-07T13:43:37.603Z,38.80
2019-06-07T13:46:04.642Z,37.30
2019-06-07T13:48:32.058Z,38.23
2019-06-07T13:50:59.132Z,39.08
2019-06-07T13:53:26.489Z,40.66
2019-06-07T13:55:53.831Z,39.57
2019-06-07T13:58:22.531Z,38.48
2019-06-07T14:00:49.726Z,38.45
2019-06-07T14:03:20.718Z,39.40
2019-06-07T14:05:45.898Z,40.29
2019-06-07T14:08:13.352Z,40.00
2019-06-07T14:10:40.331Z,39.73
2019-06-07T14:13:07.616Z,38.61
2019-06-07T14:15:34.701Z,38.20
2019-06-07T14:18:02.988Z,39.29
2019-06-07T14:20:34.120Z,38.49
2019-06-07T14:22:59.434Z,39.06
2019-06-07T14:25:27.307Z,37.85
2019-06-07T14:27:54.555Z,38.99
2019-06-07T14:30:21.852Z,39.35
2019-06-07T14:32:49.366Z,40.42
2019-06-07T14:35:16.419Z,38.35
2019-06-07T14:37:43.463Z,38.58
2019-06-07T14:40:10.517Z,37.13
2019-06-07T14:42:37.556Z,36.71
2019-06-07T14:45:06.019Z,37.24
2019-06-07T14:47:34.169Z,37.63
2019-06-07T14:50:01.298Z,39.12
2019-06-07T14:52:28.930Z,36.31
2019-06-07T14:54:56.289Z,36.76
2019-06-07T14:57:25.025Z,36.93
2019-06-07T14:59:52.532Z,36.54
2019-06-07T15:02:19.570Z,36.97
2019-06-07T15:04:46.611Z,38.97
2019-06-07T15:07:13.977Z,38.99
2019-06-07T15:09:41.330Z,36.37
2019-06-07T15:12:23.923Z,37.56
2019-06-07T15:14:37.653Z,37.86
2019-06-07T15:17:06.175Z,37.00
2019-06-07T15:19:34.537Z,38.38
2019-06-07T15:22:02.305Z,37.26
2019-06-07T15:24:32.655Z,37.63
2019-06-07T15:26:58.085Z,37.43
2019-06-07T15:29:25.126Z,37.34
2019-06-07T15:31:52.181Z,39.42
2019-06-07T15:34:19.495Z,37.15
2019-06-07T15:36:46.845Z,38.90
2019-06-07T15:39:14.214Z,37.89
2019-06-07T15:41:41.560Z,38.07
2019-06-07T15:44:08.602Z,35.91
2019-06-07T15:46:35.976Z,37.10
2019-06-07T15:49:03.038Z,37.63
2019-06-07T15:51:34.542Z,36.92
2019-06-07T15:54:13.290Z,37.42
2019-06-07T15:56:47.502Z,37.47
2019-06-07T15:59:15.741Z,38.51
2019-06-07T16:04:25.211Z,36.66
2019-06-07T16:06:57.412Z,36.34
2019-06-07T16:09:34.550Z,37.16
2019-06-07T16:12:01.617Z,37.46
2019-06-07T16:14:28.673Z,37.78
2019-06-07T16:16:59.002Z,37.51
2019-06-07T16:19:27.250Z,36.21
2019-06-07T16:21:55.438Z,36.22
2019-06-07T16:24:29.841Z,36.71
2019-06-07T16:26:58.195Z,37.21
2019-06-07T16:29:27.426Z,37.61
2019-06-07T16:31:55.633Z,37.68
2019-06-07T16:34:32.681Z,37.92
2019-06-07T16:36:59.742Z,38.07
2019-06-07T16:39:29.113Z,37.39
2019-06-07T16:41:56.453Z,37.74
2019-06-07T16:44:23.504Z,37.42
2019-06-07T16:46:50.571Z,38.27
2019-06-07T16:49:18.626Z,38.98
2019-06-07T16:51:49.401Z,38.76
2019-06-07T16:54:17.869Z,38.52
2019-06-07T16:56:49.806Z,38.33
2019-06-07T16:59:25.358Z,38.20
2019-06-07T17:01:54.404Z,38.75
2019-06-07T17:04:21.634Z,38.74
2019-06-07T17:06:48.702Z,39.21
2019-06-07T17:09:15.943Z,38.63
2019-06-07T17:11:46.306Z,39.04
2019-06-07T17:14:21.898Z,39.48
2019-06-07T17:16:50.298Z,39.80
2019-06-07T17:19:24.391Z,39.99
2019-06-07T17:21:52.839Z,40.25
2019-06-07T17:27:08.869Z,43.03
2019-06-07T17:29:36.922Z,43.20
2019-06-07T17:32:05.182Z,43.37
2019-06-07T17:39:46.862Z,60.02
2019-06-07T17:42:14.247Z,70.45
2019-06-07T17:44:45.008Z,77.92
2019-06-07T17:47:15.009Z,83.48
2019-06-07T17:49:45.817Z,85.49
2019-06-07T17:52:13.079Z,85.70
2019-06-07T18:00:27.640Z,86.15
2019-06-07T18:02:36.705Z,86.25
2019-06-07T18:05:05.198Z,85.50
2019-06-07T18:07:33.811Z,84.21
2019-06-07T18:10:03.315Z,84.12
2019-06-07T18:12:30.413Z,85.07
2019-06-07T18:15:10.107Z,86.15
2019-06-07T18:17:38.595Z,85.56
2019-06-07T18:20:07.912Z,85.31
2019-06-07T18:22:39.221Z,85.76
2019-06-07T18:25:15.632Z,85.59
2019-06-07T18:27:43.824Z,86.18
2019-06-07T18:30:20.071Z,85.16
2019-06-07T18:32:48.763Z,78.71
2019-06-07T18:35:16.697Z,80.62
2019-06-07T18:37:43.753Z,81.27
2019-06-07T18:40:12.228Z,81.89
2019-06-07T18:42:40.012Z,82.94
2019-06-07T18:45:08.595Z,82.75
2019-06-07T18:47:42.797Z,81.81
2019-06-07T18:50:11.382Z,81.86
2019-06-07T18:52:38.556Z,82.81
2019-06-07T18:55:07.108Z,82.13
2019-06-07T18:57:34.289Z,82.88
2019-06-07T19:00:01.944Z,82.38
2019-06-07T19:02:30.233Z,81.95
2019-06-07T19:05:00.470Z,79.89
2019-06-07T19:07:28.395Z,81.07
2019-06-07T19:09:57.007Z,80.55
2019-06-07T19:12:26.204Z,80.84
2019-06-07T19:14:55.586Z,79.02
2019-06-07T19:17:23.445Z,78.34
2019-06-07T19:22:29.061Z,78.57
2019-06-07T19:25:01.184Z,77.66
2019-06-07T19:27:28.915Z,78.08
2019-06-07T19:29:56.792Z,76.94
2019-06-07T19:32:23.988Z,73.74
2019-06-07T19:34:51.221Z,74.66
2019-06-07T19:37:27.410Z,76.52
2019-06-07T19:39:55.890Z,75.23
2019-06-07T19:42:24.156Z,76.11
2019-06-07T19:44:55.374Z,75.23
2019-06-07T19:47:31.161Z,74.36
2019-06-07T19:49:59.352Z,72.52
2019-06-07T19:52:27.785Z,73.52
2019-06-07T19:55:01.756Z,74.10
2019-06-07T19:57:35.449Z,73.87
2019-06-07T20:00:13.138Z,73.22
2019-06-07T20:02:35.435Z,73.67
2019-06-07T20:05:06.800Z,72.65
2019-06-07T20:07:50.609Z,71.98
2019-06-07T20:10:19.870Z,72.43
2019-06-07T20:12:47.809Z,72.19
2019-06-07T20:17:53.000Z,72.01
2019-06-07T20:20:24.911Z,72.16
2019-06-07T20:22:52.789Z,71.76
2019-06-07T20:25:23.430Z,72.07
2019-06-07T20:27:50.596Z,71.13
2019-06-07T20:30:18.137Z,71.71
2019-06-07T20:32:47.351Z,70.72
2019-06-07T20:35:18.004Z,71.59
2019-06-07T20:37:50.365Z,70.39
2019-06-07T20:40:24.306Z,70.94
2019-06-07T20:42:46.501Z,71.61
2019-06-07T20:45:14.687Z,70.91
2019-06-07T20:47:50.055Z,70.78
2019-06-07T20:50:21.378Z,70.73
2019-06-07T20:52:48.613Z,69.82
2019-06-07T20:55:20.862Z,69.56
2019-06-07T20:57:55.500Z,69.50
2019-06-07T21:00:22.839Z,68.53
2019-06-07T21:02:49.850Z,68.62
2019-06-07T21:05:16.908Z,69.38
2019-06-07T21:07:43.942Z,69.18
2019-06-07T21:10:11.426Z,68.79
2019-06-07T21:12:38.692Z,68.71
2019-06-07T21:15:09.873Z,68.57
2019-06-07T21:17:37.465Z,68.70
2019-06-07T21:20:06.038Z,68.94
2019-06-07T21:22:33.357Z,69.24
2019-06-07T21:25:00.882Z,68.85
2019-06-07T21:27:28.455Z,69.54
2019-06-07T21:29:56.937Z,69.85
2019-06-07T21:32:23.974Z,69.46
2019-06-07T21:34:51.036Z,70.97
2019-06-07T21:37:18.388Z,71.02
2019-06-07T21:39:45.438Z,70.28
2019-06-07T21:42:12.804Z,69.83
2019-06-07T21:44:40.147Z,70.91
2019-06-07T21:47:07.181Z,72.82
2019-06-07T21:49:34.229Z,73.35
2019-06-07T21:52:02.480Z,72.37
2019-06-07T21:54:30.769Z,72.51
2019-06-07T21:56:58.167Z,71.93
2019-06-07T21:59:25.204Z,71.50
2019-06-07T22:01:52.553Z,72.74
2019-06-07T22:04:19.850Z,73.03
2019-06-07T22:06:47.283Z,71.66
2019-06-07T22:09:14.773Z,71.96
2019-06-07T22:11:42.138Z,71.71
2019-06-07T22:14:10.447Z,71.20
2019-06-07T22:16:37.588Z,70.15
2019-06-07T22:19:04.629Z,68.65
2019-06-07T22:21:32.006Z,69.06
2019-06-07T22:23:59.390Z,68.57
2019-06-07T22:26:26.438Z,68.06
2019-06-07T22:28:53.768Z,67.95
2019-06-07T22:31:21.122Z,68.27
2019-06-07T22:33:48.161Z,67.77
2019-06-07T22:36:16.014Z,68.06
2019-06-07T22:38:43.168Z,68.20
2019-06-07T22:41:12.216Z,68.12
2019-06-07T22:43:38.952Z,68.74
2019-06-07T22:46:06.733Z,69.43
2019-06-07T22:48:34.594Z,69.67
2019-06-07T22:51:01.679Z,67.83
2019-06-07T22:53:28.723Z,66.82
2019-06-07T22:55:56.020Z,67.41
2019-06-07T22:58:23.059Z,66.74
2019-06-07T23:00:50.377Z,66.67
2019-06-07T23:03:19.060Z,66.36
2019-06-07T23:05:46.138Z,66.67
2019-06-07T23:08:13.177Z,66.33
2019-06-07T23:10:40.225Z,66.38
2019-06-07T23:13:07.260Z,66.76
2019-06-07T23:15:34.316Z,66.75
2019-06-07T23:18:01.688Z,67.11
2019-06-07T23:20:29.057Z,68.00
2019-06-07T23:22:56.105Z,67.37
2019-06-07T23:25:24.628Z,67.11
2019-06-07T23:27:51.979Z,67.16
2019-06-07T23:30:19.016Z,67.54
2019-06-07T23:32:46.075Z,67.79
2019-06-07T23:35:13.109Z,68.29
2019-06-07T23:37:40.425Z,69.73
2019-06-07T23:40:07.700Z,69.64
2019-06-07T23:42:35.035Z,70.28
2019-06-07T23:45:02.072Z,71.00
2019-06-07T23:47:29.289Z,71.09
2019-06-07T23:50:13.911Z,71.69
2019-06-07T23:52:40.958Z,71.54
2019-06-07T23:55:07.992Z,71.69
2019-06-07T23:57:35.040Z,71.07
